createdAt,value
2022-08-28T00:00:23.978Z,43.47
2022-08-28T00:01:01.711Z,43.42
2022-08-28T00:01:45.035Z,43.46
2022-08-28T00:02:21.977Z,43.52
2022-08-28T00:02:59.092Z,43.42
2022-08-28T00:03:37.060Z,43.68
2022-08-28T00:04:14.487Z,43.46
2022-08-28T00:04:50.857Z,43.74
2022-08-28T00:05:26.734Z,43.57
2022-08-28T00:06:02.385Z,43.49
2022-08-28T00:06:39.650Z,43.83
2022-08-28T00:07:20.370Z,41.99
2022-08-28T00:07:58.263Z,42.42
2022-08-28T00:08:37.000Z,42.59
2022-08-28T00:09:14.208Z,42.74
2022-08-28T00:09:52.406Z,42.87
2022-08-28T00:10:29.211Z,43.34
2022-08-28T00:11:06.648Z,43.03
2022-08-28T00:11:43.697Z,43.26
2022-08-28T00:12:20.999Z,43.07
2022-08-28T00:12:59.758Z,43.42
2022-08-28T00:13:46.960Z,43.48
2022-08-28T00:14:26.001Z,43.48
2022-08-28T00:15:02.828Z,43.31
2022-08-28T00:15:39.202Z,43.48
2022-08-28T00:16:15.824Z,43.66
2022-08-28T00:16:52.176Z,43.49
2022-08-28T00:17:29.293Z,43.67
2022-08-28T00:18:05.405Z,43.62
2022-08-28T00:18:43.079Z,43.78
2022-08-28T00:19:24.060Z,43.70
2022-08-28T00:20:02.465Z,43.46
2022-08-28T00:20:42.867Z,43.71
2022-08-28T00:21:23.224Z,43.48
2022-08-28T00:22:03.788Z,43.79
2022-08-28T00:22:45.785Z,43.44
2022-08-28T00:23:25.515Z,43.78
2022-08-28T00:24:14.138Z,43.75
2022-08-28T00:24:50.757Z,43.71
2022-08-28T00:25:30.542Z,43.87
2022-08-28T00:26:07.604Z,43.79
2022-08-28T00:26:44.188Z,43.84
2022-08-28T00:27:21.083Z,43.85
2022-08-28T00:27:58.330Z,43.63
2022-08-28T00:28:35.184Z,43.60
2022-08-28T00:29:12.679Z,43.59
2022-08-28T00:29:49.509Z,43.89
2022-08-28T00:30:27.908Z,43.52
2022-08-28T00:31:03.777Z,43.85
2022-08-28T00:31:41.078Z,41.57
2022-08-28T00:32:19.852Z,40.60
2022-08-28T00:32:59.741Z,40.60
2022-08-28T00:33:39.865Z,40.68
2022-08-28T00:34:21.461Z,40.90
2022-08-28T00:35:08.849Z,40.79
2022-08-28T00:35:45.039Z,41.26
2022-08-28T00:36:20.986Z,41.27
2022-08-28T00:36:57.529Z,41.52
2022-08-28T00:37:34.166Z,41.59
2022-08-28T00:38:11.099Z,41.56
2022-08-28T00:38:47.699Z,42.04
2022-08-28T00:39:25.311Z,41.81
2022-08-28T00:40:06.939Z,41.92
2022-08-28T00:40:46.114Z,42.20
2022-08-28T00:41:29.759Z,42.04
2022-08-28T00:42:14.611Z,42.56
2022-08-28T00:42:55.066Z,42.29
2022-08-28T00:43:31.441Z,42.43
2022-08-28T00:44:17.374Z,42.81
2022-08-28T00:44:54.487Z,42.82
2022-08-28T00:45:32.420Z,42.66
2022-08-28T00:46:09.445Z,42.72
2022-08-28T00:46:45.326Z,42.88
2022-08-28T00:47:21.457Z,42.94
2022-08-28T00:47:58.507Z,42.82
2022-08-28T00:48:35.289Z,42.75
2022-08-28T00:49:11.834Z,43.09
2022-08-28T00:49:48.463Z,42.81
2022-08-28T00:50:25.390Z,42.90
2022-08-28T00:51:02.092Z,43.10
2022-08-28T00:51:38.058Z,42.97
2022-08-28T00:52:15.749Z,43.02
2022-08-28T00:52:52.478Z,43.24
2022-08-28T00:53:30.059Z,43.07
2022-08-28T00:54:09.040Z,42.97
2022-08-28T00:54:58.899Z,43.14
2022-08-28T00:55:35.518Z,43.01
2022-08-28T00:56:12.842Z,43.20
2022-08-28T00:56:48.542Z,43.31
2022-08-28T00:57:26.935Z,43.39
2022-08-28T00:58:02.397Z,43.30
2022-08-28T00:58:39.406Z,43.07
2022-08-28T00:59:15.640Z,43.03
2022-08-28T00:59:52.338Z,43.42
2022-08-28T01:00:28.808Z,43.35
2022-08-28T01:01:05.681Z,43.36
2022-08-28T01:01:41.408Z,43.17
2022-08-28T01:02:18.472Z,42.07
2022-08-28T01:02:55.134Z,41.77
2022-08-28T01:03:31.539Z,40.37
2022-08-28T01:04:08.673Z,39.78
2022-08-28T01:04:49.440Z,40.13
2022-08-28T01:05:31.686Z,40.16
2022-08-28T01:06:11.650Z,40.43
2022-08-28T01:06:53.065Z,40.96
2022-08-28T01:07:36.506Z,41.00
2022-08-28T01:08:18.659Z,41.41
2022-08-28T01:08:59.941Z,41.33
2022-08-28T01:09:38.561Z,41.42
2022-08-28T01:10:19.912Z,41.50
2022-08-28T01:11:00.285Z,41.87
2022-08-28T01:11:41.915Z,41.57
2022-08-28T01:12:23.546Z,41.76
2022-08-28T01:13:03.852Z,42.03
2022-08-28T01:13:44.034Z,42.07
2022-08-28T01:14:21.225Z,42.02
2022-08-28T01:14:58.379Z,41.89
2022-08-28T01:15:34.793Z,41.88
2022-08-28T01:16:14.953Z,42.13
2022-08-28T01:16:51.577Z,41.82
2022-08-28T01:17:27.992Z,40.97
2022-08-28T01:18:08.251Z,41.00
2022-08-28T01:18:44.471Z,41.64
2022-08-28T01:19:21.416Z,41.67
2022-08-28T01:19:58.567Z,41.53
2022-08-28T01:20:35.822Z,41.60
2022-08-28T01:21:20.074Z,41.51
2022-08-28T01:21:55.685Z,41.57
2022-08-28T01:22:31.658Z,41.79
2022-08-28T01:23:08.147Z,41.78
2022-08-28T01:23:44.894Z,41.80
2022-08-28T01:24:21.005Z,41.61
2022-08-28T01:24:57.900Z,41.76
2022-08-28T01:25:35.200Z,41.63
2022-08-28T01:26:12.072Z,41.59
2022-08-28T01:26:53.282Z,41.55
2022-08-28T01:27:36.976Z,41.56
2022-08-28T01:28:16.750Z,41.71
2022-08-28T01:28:57.016Z,41.48
2022-08-28T01:29:33.015Z,41.49
2022-08-28T01:30:10.621Z,41.58
2022-08-28T01:30:47.754Z,41.55
2022-08-28T01:31:24.031Z,41.61
2022-08-28T01:32:00.300Z,41.65
2022-08-28T01:32:36.944Z,41.57
2022-08-28T01:33:13.278Z,41.53
2022-08-28T01:33:50.940Z,41.61
2022-08-28T01:34:26.999Z,41.88
2022-08-28T01:35:04.029Z,41.80
2022-08-28T01:35:40.656Z,41.71
2022-08-28T01:36:17.774Z,41.52
2022-08-28T01:36:54.777Z,41.73
2022-08-28T01:37:34.570Z,41.58
2022-08-28T01:38:11.304Z,41.77
2022-08-28T01:38:47.197Z,41.55
2022-08-28T01:39:24.082Z,41.51
2022-08-28T01:40:00.649Z,41.68
2022-08-28T01:40:37.900Z,41.43
2022-08-28T01:41:15.478Z,41.58
2022-08-28T01:41:52.365Z,41.92
2022-08-28T01:42:29.059Z,41.78
2022-08-28T01:43:05.217Z,41.43
2022-08-28T01:43:41.317Z,41.71
2022-08-28T01:44:18.140Z,41.40
2022-08-28T01:44:54.844Z,41.51
2022-08-28T01:45:30.956Z,41.76
2022-08-28T01:46:10.743Z,41.79
2022-08-28T01:46:48.335Z,41.79
2022-08-28T01:47:27.227Z,41.56
2022-08-28T01:48:07.061Z,41.81
2022-08-28T01:48:52.173Z,41.75
2022-08-28T01:49:34.993Z,40.87
2022-08-28T01:50:16.942Z,41.15
2022-08-28T01:51:06.727Z,40.73
2022-08-28T01:51:48.356Z,41.25
2022-08-28T01:52:28.233Z,41.14
2022-08-28T01:53:12.390Z,41.12
2022-08-28T01:53:53.335Z,41.13
2022-08-28T01:54:34.256Z,41.25
2022-08-28T01:55:15.656Z,41.30
2022-08-28T01:55:58.213Z,41.24
2022-08-28T01:56:37.147Z,41.12
2022-08-28T01:57:13.706Z,41.26
2022-08-28T01:57:50.428Z,41.27
2022-08-28T01:58:27.241Z,41.17
2022-08-28T01:59:04.642Z,40.94
2022-08-28T01:59:41.252Z,41.02
2022-08-28T02:00:18.753Z,40.90
2022-08-28T02:00:54.946Z,40.98
2022-08-28T02:01:31.006Z,41.20
2022-08-28T02:02:07.762Z,40.93
2022-08-28T02:02:45.244Z,40.98
2022-08-28T02:03:22.643Z,40.86
2022-08-28T02:04:05.982Z,41.18
2022-08-28T02:04:42.724Z,40.88
2022-08-28T02:05:20.807Z,40.99
2022-08-28T02:05:56.989Z,41.12
2022-08-28T02:06:32.663Z,40.86
2022-08-28T02:07:10.119Z,41.00
2022-08-28T02:07:47.167Z,41.00
2022-08-28T02:08:23.557Z,40.93
2022-08-28T02:09:00.372Z,40.86
2022-08-28T02:09:37.210Z,40.96
2022-08-28T02:10:14.214Z,40.83
2022-08-28T02:10:50.976Z,40.97
2022-08-28T02:11:28.855Z,41.21
2022-08-28T02:12:05.534Z,40.85
2022-08-28T02:12:44.158Z,41.29
2022-08-28T02:13:26.343Z,40.96
2022-08-28T02:14:07.017Z,41.02
2022-08-28T02:14:48.240Z,40.81
2022-08-28T02:15:26.435Z,41.18
2022-08-28T02:16:07.140Z,40.83
2022-08-28T02:16:49.177Z,41.17
2022-08-28T02:17:30.634Z,40.90
2022-08-28T02:18:11.504Z,40.85
2022-08-28T02:18:51.395Z,41.27
2022-08-28T02:19:28.412Z,40.89
2022-08-28T02:20:05.376Z,41.02
2022-08-28T02:20:41.934Z,40.15
2022-08-28T02:21:19.651Z,40.06
2022-08-28T02:21:56.589Z,40.21
2022-08-28T02:22:32.248Z,40.50
2022-08-28T02:23:09.437Z,40.29
2022-08-28T02:23:45.993Z,40.71
2022-08-28T02:24:22.746Z,40.51
2022-08-28T02:24:58.886Z,41.00
2022-08-28T02:25:36.048Z,40.84
2022-08-28T02:26:13.005Z,40.86
2022-08-28T02:26:50.189Z,41.10
2022-08-28T02:27:26.671Z,41.25
2022-08-28T02:28:02.317Z,41.02
2022-08-28T02:28:39.428Z,40.96
2022-08-28T02:29:16.226Z,40.97
2022-08-28T02:29:53.224Z,40.98
2022-08-28T02:30:29.611Z,40.97
2022-08-28T02:31:06.452Z,41.22
2022-08-28T02:31:43.065Z,41.00
2022-08-28T02:32:19.960Z,40.95
2022-08-28T02:32:56.373Z,40.96
2022-08-28T02:33:33.680Z,41.00
2022-08-28T02:34:17.908Z,40.99
2022-08-28T02:34:54.894Z,41.04
2022-08-28T02:35:31.617Z,41.06
2022-08-28T02:36:09.207Z,41.24
2022-08-28T02:36:49.697Z,41.02
2022-08-28T02:37:30.123Z,41.02
2022-08-28T02:38:09.014Z,41.10
2022-08-28T02:38:52.968Z,41.19
2022-08-28T02:39:32.243Z,41.02
2022-08-28T02:40:09.579Z,41.29
2022-08-28T02:40:46.691Z,41.26
2022-08-28T02:41:27.985Z,41.09
2022-08-28T02:42:11.899Z,41.03
2022-08-28T02:42:54.142Z,41.07
2022-08-28T02:43:34.760Z,41.25
2022-08-28T02:44:22.744Z,41.23
2022-08-28T02:44:58.956Z,41.30
2022-08-28T02:45:35.992Z,41.01
2022-08-28T02:46:12.360Z,41.15
2022-08-28T02:46:49.086Z,41.24
2022-08-28T02:47:25.485Z,41.14
2022-08-28T02:48:02.277Z,41.09
2022-08-28T02:48:39.493Z,41.28
2022-08-28T02:49:19.340Z,41.05
2022-08-28T02:49:57.316Z,41.35
2022-08-28T02:50:37.631Z,41.27
2022-08-28T02:51:18.252Z,40.99
2022-08-28T02:52:00.102Z,41.13
2022-08-28T02:52:40.389Z,41.30
2022-08-28T02:53:16.084Z,41.35
2022-08-28T02:53:53.014Z,41.07
2022-08-28T02:54:29.622Z,40.99
2022-08-28T02:55:07.158Z,41.24
2022-08-28T02:55:44.244Z,41.04
2022-08-28T02:56:20.832Z,41.13
2022-08-28T02:56:57.090Z,40.96
2022-08-28T02:57:32.668Z,41.03
2022-08-28T02:58:10.828Z,41.00
2022-08-28T02:58:47.971Z,41.03
2022-08-28T02:59:24.586Z,41.12
2022-08-28T03:00:01.454Z,41.06
2022-08-28T03:00:38.307Z,41.04
2022-08-28T03:01:15.755Z,41.08
2022-08-28T03:01:52.724Z,41.16
2022-08-28T03:02:29.697Z,41.18
2022-08-28T03:03:05.702Z,41.25
2022-08-28T03:03:42.371Z,41.13
2022-08-28T03:04:19.253Z,41.12
2022-08-28T03:04:56.014Z,41.20
2022-08-28T03:05:32.564Z,41.01
2022-08-28T03:06:09.492Z,41.08
2022-08-28T03:06:46.056Z,41.18
2022-08-28T03:07:22.911Z,41.13
2022-08-28T03:07:59.044Z,41.20
2022-08-28T03:08:36.235Z,41.16
2022-08-28T03:09:12.763Z,41.43
2022-08-28T03:09:49.694Z,41.15
2022-08-28T03:10:26.327Z,41.42
2022-08-28T03:11:03.443Z,41.44
2022-08-28T03:11:41.230Z,41.22
2022-08-28T03:12:18.960Z,41.18
2022-08-28T03:12:59.981Z,41.40
2022-08-28T03:13:39.948Z,41.25
2022-08-28T03:14:21.488Z,41.48
2022-08-28T03:15:01.706Z,41.22
2022-08-28T03:15:40.296Z,41.42
2022-08-28T03:16:17.043Z,41.48
2022-08-28T03:16:54.175Z,41.21
2022-08-28T03:17:30.770Z,41.37
2022-08-28T03:18:08.135Z,41.47
2022-08-28T03:18:46.987Z,41.27
2022-08-28T03:19:23.861Z,41.46
2022-08-28T03:20:01.259Z,41.43
2022-08-28T03:20:38.690Z,41.39
2022-08-28T03:21:16.788Z,41.28
2022-08-28T03:21:53.370Z,41.34
2022-08-28T03:22:30.676Z,41.44
2022-08-28T03:23:07.853Z,41.54
2022-08-28T03:23:44.322Z,41.61
2022-08-28T03:24:20.885Z,41.36
2022-08-28T03:24:57.502Z,41.50
2022-08-28T03:25:34.136Z,41.48
2022-08-28T03:26:11.341Z,41.61
2022-08-28T03:26:48.045Z,41.31
2022-08-28T03:27:24.657Z,41.62
2022-08-28T03:28:00.982Z,41.61
2022-08-28T03:28:37.598Z,41.55
2022-08-28T03:29:14.345Z,41.53
2022-08-28T03:29:51.536Z,41.66
2022-08-28T03:30:28.527Z,41.37
2022-08-28T03:31:05.435Z,41.34
2022-08-28T03:31:42.558Z,41.43
2022-08-28T03:32:18.713Z,41.39
2022-08-28T03:32:55.348Z,41.42
2022-08-28T03:33:32.300Z,41.35
2022-08-28T03:34:09.025Z,41.65
2022-08-28T03:34:45.337Z,41.59
2022-08-28T03:35:21.969Z,41.66
2022-08-28T03:35:59.197Z,41.45
2022-08-28T03:36:42.467Z,41.37
2022-08-28T03:37:28.293Z,41.59
2022-08-28T03:38:04.081Z,41.68
2022-08-28T03:38:42.240Z,41.58
2022-08-28T03:39:23.977Z,41.64
2022-08-28T03:40:05.032Z,41.45
2022-08-28T03:40:46.730Z,41.43
2022-08-28T03:41:30.607Z,41.62
2022-08-28T03:42:13.455Z,41.64
2022-08-28T03:42:53.348Z,41.69
2022-08-28T03:43:29.308Z,41.71
2022-08-28T03:44:06.793Z,41.48
2022-08-28T03:44:42.852Z,41.50
2022-08-28T03:45:19.839Z,41.61
2022-08-28T03:45:57.365Z,41.73
2022-08-28T03:46:34.072Z,41.75
2022-08-28T03:47:10.950Z,41.66
2022-08-28T03:47:47.291Z,41.44
2022-08-28T03:48:23.663Z,41.59
2022-08-28T03:49:00.618Z,41.52
2022-08-28T03:49:37.685Z,41.64
2022-08-28T03:50:14.568Z,41.77
2022-08-28T03:50:51.301Z,41.57
2022-08-28T03:51:29.533Z,41.67
2022-08-28T03:52:06.712Z,41.36
2022-08-28T03:52:43.890Z,41.78
2022-08-28T03:53:19.418Z,41.45
2022-08-28T03:53:56.383Z,41.68
2022-08-28T03:54:33.172Z,41.75
2022-08-28T03:55:10.718Z,41.57
2022-08-28T03:55:47.551Z,41.82
2022-08-28T03:56:24.360Z,41.65
2022-08-28T03:57:00.988Z,41.75
2022-08-28T03:57:37.039Z,41.52
2022-08-28T03:58:18.963Z,41.67
2022-08-28T03:58:54.688Z,41.47
2022-08-28T03:59:33.528Z,41.68
2022-08-28T04:00:09.415Z,41.80
2022-08-28T04:00:48.268Z,41.55
2022-08-28T04:01:27.751Z,41.67
2022-08-28T04:02:05.393Z,41.66
2022-08-28T04:02:43.001Z,41.70
2022-08-28T04:03:25.504Z,41.60
2022-08-28T04:04:06.532Z,41.47
2022-08-28T04:04:48.615Z,41.68
2022-08-28T04:05:29.837Z,41.55
2022-08-28T04:06:09.978Z,41.55
2022-08-28T04:06:52.262Z,41.49
2022-08-28T04:07:33.159Z,41.72
2022-08-28T04:08:14.541Z,41.42
2022-08-28T04:08:55.112Z,41.68
2022-08-28T04:09:39.374Z,41.47
2022-08-28T04:10:18.229Z,41.48
2022-08-28T04:10:57.454Z,41.79
2022-08-28T04:11:39.187Z,41.47
2022-08-28T04:12:19.519Z,41.65
2022-08-28T04:13:00.986Z,41.56
2022-08-28T04:13:40.127Z,41.44
2022-08-28T04:14:18.255Z,41.42
2022-08-28T04:14:54.730Z,41.59
2022-08-28T04:15:31.624Z,41.68
2022-08-28T04:16:07.929Z,41.67
2022-08-28T04:16:44.784Z,41.45
2022-08-28T04:17:21.508Z,41.47
2022-08-28T04:17:58.125Z,41.71
2022-08-28T04:18:34.216Z,41.72
2022-08-28T04:19:13.726Z,41.51
2022-08-28T04:19:50.668Z,41.47
2022-08-28T04:20:27.126Z,41.62
2022-08-28T04:21:03.827Z,41.72
2022-08-28T04:21:40.665Z,41.63
2022-08-28T04:22:17.967Z,41.73
2022-08-28T04:22:55.040Z,41.49
2022-08-28T04:23:30.710Z,41.62
2022-08-28T04:24:09.842Z,41.45
2022-08-28T04:24:45.645Z,41.54
2022-08-28T04:25:22.237Z,41.44
2022-08-28T04:25:59.165Z,41.78
2022-08-28T04:26:36.301Z,41.39
2022-08-28T04:27:13.061Z,41.50
2022-08-28T04:27:49.939Z,41.44
2022-08-28T04:28:25.780Z,41.35
2022-08-28T04:29:03.145Z,41.43
2022-08-28T04:29:41.137Z,41.63
2022-08-28T04:30:21.561Z,41.35
2022-08-28T04:31:04.594Z,41.41
2022-08-28T04:31:45.897Z,41.61
2022-08-28T04:32:25.488Z,41.34
2022-08-28T04:33:03.588Z,41.38
2022-08-28T04:33:39.659Z,41.60
2022-08-28T04:34:17.892Z,41.24
2022-08-28T04:34:54.605Z,41.50
2022-08-28T04:35:31.627Z,41.64
2022-08-28T04:36:08.986Z,41.49
2022-08-28T04:36:45.503Z,41.72
2022-08-28T04:37:22.070Z,41.65
2022-08-28T04:38:04.262Z,41.33
2022-08-28T04:38:43.924Z,41.30
2022-08-28T04:39:19.608Z,41.73
2022-08-28T04:39:55.750Z,41.32
2022-08-28T04:40:32.200Z,41.31
2022-08-28T04:41:09.838Z,41.55
2022-08-28T04:41:46.486Z,41.37
2022-08-28T04:42:23.635Z,41.57
2022-08-28T04:43:00.061Z,41.30
2022-08-28T04:43:36.211Z,41.55
2022-08-28T04:44:12.359Z,41.35
2022-08-28T04:44:49.627Z,41.61
2022-08-28T04:45:26.378Z,41.57
2022-08-28T04:46:03.479Z,41.37
2022-08-28T04:46:40.128Z,41.50
2022-08-28T04:47:16.843Z,41.27
2022-08-28T04:47:54.371Z,41.66
2022-08-28T04:48:31.255Z,41.66
2022-08-28T04:49:08.244Z,41.58
2022-08-28T04:49:44.037Z,41.52
2022-08-28T04:50:21.234Z,41.56
2022-08-28T04:50:58.320Z,41.56
2022-08-28T04:51:37.868Z,41.56
2022-08-28T04:52:17.801Z,41.49
2022-08-28T04:52:55.295Z,41.40
2022-08-28T04:53:32.134Z,41.59
2022-08-28T04:54:11.087Z,41.65
2022-08-28T04:54:47.034Z,41.54
2022-08-28T04:55:27.877Z,41.55
2022-08-28T04:56:20.201Z,41.41
2022-08-28T04:56:57.423Z,41.61
2022-08-28T04:57:36.440Z,41.58
2022-08-28T04:58:12.758Z,41.52
2022-08-28T04:58:49.950Z,41.55
2022-08-28T04:59:26.111Z,41.69
2022-08-28T05:00:02.224Z,41.56
2022-08-28T05:00:38.858Z,41.62
2022-08-28T05:01:15.962Z,41.43
2022-08-28T05:01:52.382Z,41.36
2022-08-28T05:02:29.483Z,41.61
2022-08-28T05:03:05.975Z,41.38
2022-08-28T05:03:43.528Z,41.61
2022-08-28T05:04:20.141Z,41.29
2022-08-28T05:04:56.281Z,41.41
2022-08-28T05:05:33.329Z,41.67
2022-08-28T05:06:09.967Z,41.34
2022-08-28T05:06:46.739Z,41.38
2022-08-28T05:07:23.249Z,41.31
2022-08-28T05:07:59.293Z,41.60
2022-08-28T05:08:36.026Z,41.52
2022-08-28T05:09:12.569Z,41.52
2022-08-28T05:09:49.146Z,41.35
2022-08-28T05:10:25.204Z,41.36
2022-08-28T05:11:02.454Z,41.45
2022-08-28T05:11:40.304Z,41.41
2022-08-28T05:12:19.386Z,41.44
2022-08-28T05:12:57.985Z,41.64
2022-08-28T05:13:36.375Z,41.69
2022-08-28T05:14:18.424Z,41.44
2022-08-28T05:15:04.272Z,41.52
2022-08-28T05:15:43.360Z,41.40
2022-08-28T05:16:22.774Z,41.61
2022-08-28T05:17:04.994Z,41.51
2022-08-28T05:17:41.132Z,41.64
2022-08-28T05:18:18.109Z,41.36
2022-08-28T05:18:54.945Z,41.36
2022-08-28T05:19:30.371Z,41.63
2022-08-28T05:20:06.486Z,41.35
2022-08-28T05:20:41.952Z,41.52
2022-08-28T05:21:18.595Z,41.37
2022-08-28T05:21:55.538Z,41.39
2022-08-28T05:22:32.084Z,41.54
2022-08-28T05:23:08.978Z,41.49
2022-08-28T05:23:45.587Z,41.39
2022-08-28T05:24:22.654Z,41.37
2022-08-28T05:24:59.293Z,41.29
2022-08-28T05:25:35.801Z,41.55
2022-08-28T05:26:12.025Z,41.53
2022-08-28T05:26:49.943Z,41.40
2022-08-28T05:27:27.754Z,41.41
2022-08-28T05:28:04.570Z,41.61
2022-08-28T05:28:41.423Z,41.64
2022-08-28T05:29:18.431Z,41.41
2022-08-28T05:29:58.494Z,41.73
2022-08-28T05:30:37.808Z,41.63
2022-08-28T05:31:16.578Z,41.63
2022-08-28T05:32:01.426Z,41.44
2022-08-28T05:32:40.785Z,41.76
2022-08-28T05:33:18.354Z,41.66
2022-08-28T05:33:56.592Z,41.67
2022-08-28T05:34:36.385Z,41.51
2022-08-28T05:35:18.814Z,41.49
2022-08-28T05:36:02.220Z,41.69
2022-08-28T05:36:43.024Z,41.71
2022-08-28T05:37:24.844Z,41.50
2022-08-28T05:38:05.134Z,41.46
2022-08-28T05:38:47.391Z,41.73
2022-08-28T05:39:26.462Z,41.73
2022-08-28T05:40:02.826Z,41.45
2022-08-28T05:40:39.467Z,41.64
2022-08-28T05:41:15.678Z,41.79
2022-08-28T05:41:51.431Z,41.70
2022-08-28T05:42:30.596Z,41.64
2022-08-28T05:43:06.297Z,41.50
2022-08-28T05:43:42.853Z,41.73
2022-08-28T05:44:19.391Z,41.75
2022-08-28T05:44:55.774Z,41.48
2022-08-28T05:45:32.805Z,41.55
2022-08-28T05:46:10.643Z,41.64
2022-08-28T05:46:46.858Z,41.73
2022-08-28T05:47:22.979Z,41.76
2022-08-28T05:47:59.681Z,41.77
2022-08-28T05:48:37.207Z,41.76
2022-08-28T05:49:15.489Z,41.68
2022-08-28T05:49:52.357Z,41.49
2022-08-28T05:50:28.821Z,41.73
2022-08-28T05:51:05.592Z,41.81
2022-08-28T05:51:41.687Z,41.60
2022-08-28T05:52:18.711Z,41.81
2022-08-28T05:52:55.577Z,41.79
2022-08-28T05:53:32.725Z,41.67
2022-08-28T05:54:09.881Z,41.52
2022-08-28T05:54:46.275Z,41.74
2022-08-28T05:55:22.003Z,41.48
2022-08-28T05:55:59.248Z,41.52
2022-08-28T05:56:38.239Z,41.62
2022-08-28T05:57:16.613Z,41.63
2022-08-28T05:57:53.459Z,41.86
2022-08-28T05:58:30.141Z,41.81
2022-08-28T05:59:10.027Z,41.80
2022-08-28T05:59:50.869Z,41.86
2022-08-28T06:00:32.494Z,41.79
2022-08-28T06:01:14.941Z,41.79
2022-08-28T06:01:53.974Z,41.55
2022-08-28T06:02:33.346Z,41.83
2022-08-28T06:03:19.464Z,41.77
2022-08-28T06:04:02.524Z,41.60
2022-08-28T06:04:39.486Z,41.86
2022-08-28T06:05:18.995Z,41.84
2022-08-28T06:06:00.121Z,41.70
2022-08-28T06:06:41.683Z,41.86
2022-08-28T06:07:21.503Z,41.69
2022-08-28T06:07:58.742Z,41.83
2022-08-28T06:08:35.385Z,41.77
2022-08-28T06:09:11.676Z,41.82
2022-08-28T06:09:47.945Z,41.71
2022-08-28T06:10:24.377Z,41.86
2022-08-28T06:11:01.378Z,41.61
2022-08-28T06:11:38.590Z,41.84
2022-08-28T06:12:20.262Z,41.85
2022-08-28T06:12:56.783Z,41.81
2022-08-28T06:13:32.851Z,41.86
2022-08-28T06:14:10.258Z,41.76
2022-08-28T06:14:46.999Z,41.76
2022-08-28T06:15:23.493Z,41.76
2022-08-28T06:16:00.152Z,41.72
2022-08-28T06:16:37.163Z,41.89
2022-08-28T06:17:14.787Z,41.80
2022-08-28T06:17:51.153Z,41.80
2022-08-28T06:18:26.253Z,41.60
2022-08-28T06:19:02.567Z,41.89
2022-08-28T06:19:41.326Z,41.96
2022-08-28T06:20:19.678Z,41.85
2022-08-28T06:21:01.292Z,41.94
2022-08-28T06:21:42.839Z,41.78
2022-08-28T06:22:23.847Z,41.91
2022-08-28T06:23:05.004Z,41.68
2022-08-28T06:23:40.700Z,41.86
2022-08-28T06:24:18.296Z,41.58
2022-08-28T06:24:55.288Z,41.92
2022-08-28T06:25:31.592Z,41.51
2022-08-28T06:26:08.531Z,41.74
2022-08-28T06:26:44.743Z,41.66
2022-08-28T06:27:21.360Z,41.83
2022-08-28T06:27:58.120Z,41.63
2022-08-28T06:28:35.176Z,41.85
2022-08-28T06:29:11.256Z,41.71
2022-08-28T06:29:48.461Z,41.81
2022-08-28T06:30:25.437Z,41.76
2022-08-28T06:31:58.683Z,41.82
2022-08-28T06:32:37.972Z,41.84
2022-08-28T06:33:16.430Z,41.53
2022-08-28T06:33:55.275Z,41.87
2022-08-28T06:34:37.495Z,41.74
2022-08-28T06:35:19.036Z,41.86
2022-08-28T06:35:59.059Z,41.67
2022-08-28T06:36:40.745Z,41.84
2022-08-28T06:37:22.756Z,41.64
2022-08-28T06:38:07.081Z,41.86
2022-08-28T06:38:47.301Z,41.85
2022-08-28T06:39:28.101Z,41.88
2022-08-28T06:40:12.699Z,41.94
2022-08-28T06:40:53.698Z,41.65
2022-08-28T06:41:31.943Z,41.79
2022-08-28T06:42:10.701Z,41.99
2022-08-28T06:42:45.709Z,41.72
2022-08-28T06:43:56.768Z,41.69
2022-08-28T06:44:41.065Z,41.71
2022-08-28T06:45:25.750Z,41.83
2022-08-28T06:46:10.755Z,41.76
2022-08-28T06:46:55.776Z,41.55
2022-08-28T06:47:40.366Z,41.60
2022-08-28T06:48:24.155Z,41.86
2022-08-28T06:49:09.204Z,41.80
2022-08-28T06:49:52.514Z,41.65
2022-08-28T06:50:45.576Z,41.85
2022-08-28T06:51:44.590Z,41.67
2022-08-28T06:52:28.951Z,41.83
2022-08-28T06:53:15.945Z,41.72
2022-08-28T06:54:03.672Z,41.79
2022-08-28T06:54:55.458Z,41.67
2022-08-28T06:55:37.876Z,41.83
2022-08-28T06:56:26.328Z,41.81
2022-08-28T06:57:21.133Z,41.83
2022-08-28T06:58:14.025Z,41.49
2022-08-28T06:59:02.239Z,41.63
2022-08-28T06:59:54.874Z,41.81
2022-08-28T07:00:40.623Z,41.49
2022-08-28T07:01:31.647Z,41.79
2022-08-28T07:02:28.409Z,41.57
2022-08-28T07:03:22.361Z,41.80
2022-08-28T07:04:06.523Z,41.54
2022-08-28T07:04:56.620Z,41.57
2022-08-28T07:05:47.607Z,41.54
2022-08-28T07:06:34.501Z,41.94
2022-08-28T07:07:31.284Z,41.69
2022-08-28T07:08:14.154Z,41.57
2022-08-28T07:09:00.525Z,41.61
2022-08-28T07:09:52.450Z,41.78
2022-08-28T07:10:36.669Z,41.87
2022-08-28T07:11:22.071Z,41.61
2022-08-28T07:12:09.133Z,41.79
2022-08-28T07:12:54.451Z,41.63
2022-08-28T07:13:41.825Z,41.78
2022-08-28T07:14:36.907Z,41.80
2022-08-28T07:15:21.653Z,41.74
2022-08-28T07:16:07.091Z,41.72
2022-08-28T07:16:54.056Z,41.66
2022-08-28T07:17:39.123Z,41.80
2022-08-28T07:18:23.655Z,41.82
2022-08-28T07:19:08.271Z,41.60
2022-08-28T07:19:53.358Z,41.83
2022-08-28T07:20:44.589Z,41.59
2022-08-28T07:21:38.259Z,41.67
2022-08-28T07:22:32.574Z,41.84
2022-08-28T07:23:25.363Z,41.91
2022-08-28T07:24:11.635Z,41.92
2022-08-28T07:25:05.091Z,41.78
2022-08-28T07:25:46.485Z,41.57
2022-08-28T07:26:30.783Z,41.65
2022-08-28T07:27:18.932Z,41.70
2022-08-28T07:28:02.927Z,41.82
2022-08-28T07:28:53.145Z,41.70
2022-08-28T07:29:49.026Z,41.88
2022-08-28T07:30:34.852Z,41.79
2022-08-28T07:31:18.669Z,41.58
2022-08-28T07:32:03.742Z,41.58
2022-08-28T07:32:52.028Z,41.69
2022-08-28T07:33:36.030Z,41.61
2022-08-28T07:34:21.634Z,41.68
2022-08-28T07:35:09.644Z,41.57
2022-08-28T07:35:53.647Z,41.50
2022-08-28T07:36:43.925Z,41.74
2022-08-28T07:37:35.278Z,41.54
2022-08-28T07:38:30.296Z,41.82
2022-08-28T07:39:16.812Z,41.71
2022-08-28T07:41:07.318Z,41.50
2022-08-28T07:41:57.882Z,41.36
2022-08-28T07:43:57.950Z,41.40
2022-08-28T07:44:53.609Z,41.47
2022-08-28T07:45:34.505Z,41.52
2022-08-28T07:46:18.775Z,41.64
2022-08-28T07:46:59.635Z,41.73
2022-08-28T07:47:47.206Z,41.18
2022-08-28T07:48:32.793Z,41.40
2022-08-28T07:49:17.725Z,41.48
2022-08-28T07:50:01.803Z,41.17
2022-08-28T07:50:46.252Z,41.50
2022-08-28T07:51:29.972Z,41.46
2022-08-28T07:52:14.054Z,41.49
2022-08-28T07:53:01.477Z,41.56
2022-08-28T07:54:04.066Z,41.44
2022-08-28T07:54:48.529Z,41.57
2022-08-28T07:55:46.726Z,41.36
2022-08-28T07:57:42.835Z,41.34
2022-08-28T07:58:28.084Z,41.35
2022-08-28T07:59:11.481Z,41.29
2022-08-28T07:59:54.097Z,41.18
2022-08-28T08:00:43.741Z,41.33
2022-08-28T08:01:52.416Z,41.46
2022-08-28T08:02:56.941Z,41.53
2022-08-28T08:03:58.322Z,41.44
2022-08-28T08:04:49.231Z,41.49
2022-08-28T08:06:35.134Z,41.27
2022-08-28T08:07:39.036Z,41.38
2022-08-28T08:08:31.138Z,41.28
2022-08-28T08:09:26.379Z,41.28
2022-08-28T08:10:20.008Z,41.40
2022-08-28T08:11:07.922Z,41.30
2022-08-28T08:12:02.293Z,41.33
2022-08-28T08:12:57.478Z,41.18
2022-08-28T08:13:46.630Z,41.11
2022-08-28T08:14:30.015Z,41.02
2022-08-28T08:15:14.746Z,40.79
2022-08-28T08:16:02.054Z,41.23
2022-08-28T08:16:48.895Z,41.09
2022-08-28T08:17:34.802Z,41.29
2022-08-28T08:18:21.097Z,41.36
2022-08-28T08:19:10.643Z,41.35
2022-08-28T08:19:52.225Z,41.33
2022-08-28T08:20:37.662Z,41.06
2022-08-28T08:21:30.284Z,41.31
2022-08-28T08:22:13.648Z,41.20
2022-08-28T08:23:00.494Z,41.11
2022-08-28T08:23:43.624Z,41.16
2022-08-28T08:24:25.261Z,41.36
2022-08-28T08:25:12.473Z,41.29
2022-08-28T08:25:55.755Z,41.17
2022-08-28T08:26:43.077Z,41.14
2022-08-28T08:27:30.086Z,41.36
2022-08-28T08:28:15.406Z,41.21
2022-08-28T08:29:04.685Z,41.29
2022-08-28T08:29:47.882Z,41.29
2022-08-28T08:30:33.694Z,41.16
2022-08-28T08:31:23.971Z,41.16
2022-08-28T08:32:21.416Z,41.10
2022-08-28T08:33:21.842Z,41.34
2022-08-28T08:34:33.579Z,41.32
2022-08-28T08:35:29.799Z,41.35
2022-08-28T08:36:19.091Z,41.10
2022-08-28T08:37:03.948Z,41.04
2022-08-28T08:37:46.558Z,40.98
2022-08-28T08:38:32.611Z,41.27
2022-08-28T08:39:21.893Z,41.29
2022-08-28T08:40:18.454Z,40.98
2022-08-28T08:42:57.038Z,40.92
2022-08-28T08:43:42.107Z,41.04